createdAt,value
2023-01-07T00:00:54.220Z,2.40
2023-01-07T00:03:21.950Z,2.10
2023-01-07T00:05:50.837Z,1.90
2023-01-07T00:08:18.401Z,2.10
2023-01-07T00:10:45.923Z,1.80
2023-01-07T00:13:13.451Z,1.83
2023-01-07T00:15:40.982Z,1.80
2023-01-07T00:18:09.629Z,2.03
2023-01-07T00:20:37.301Z,1.87
2023-01-07T00:23:06.240Z,2.00
2023-01-07T00:25:33.793Z,1.80
2023-01-07T00:28:01.313Z,1.83
2023-01-07T00:30:30.119Z,1.70
2023-01-07T00:33:04.945Z,1.63
2023-01-07T00:35:34.245Z,1.53
2023-01-07T00:38:01.871Z,1.40
2023-01-07T00:40:31.934Z,1.30
2023-01-07T00:43:02.348Z,1.30
2023-01-07T00:45:31.745Z,1.40
2023-01-07T00:47:59.938Z,1.50
2023-01-07T00:50:29.722Z,1.50
2023-01-07T00:52:57.494Z,1.30
2023-01-07T00:55:26.035Z,1.20
2023-01-07T00:57:55.065Z,1.27
2023-01-07T01:00:24.130Z,1.50
2023-01-07T01:02:52.597Z,1.80
2023-01-07T01:05:21.464Z,2.00
2023-01-07T01:07:49.376Z,2.50
2023-01-07T01:10:20.066Z,2.20
2023-01-07T01:12:49.303Z,1.97
2023-01-07T01:15:18.748Z,2.50
2023-01-07T01:17:46.602Z,2.50
2023-01-07T01:20:16.422Z,2.47
2023-01-07T01:22:44.116Z,2.53
2023-01-07T01:25:12.312Z,2.53
2023-01-07T01:27:40.321Z,2.70
2023-01-07T01:30:09.100Z,2.53
2023-01-07T01:32:41.058Z,2.20
2023-01-07T01:35:09.835Z,2.17
2023-01-07T01:37:37.434Z,2.30
2023-01-07T01:40:06.739Z,2.40
2023-01-07T01:42:34.996Z,2.13
2023-01-07T01:45:06.192Z,2.30
2023-01-07T01:47:44.714Z,2.77
2023-01-07T01:50:19.275Z,2.73
2023-01-07T01:52:51.098Z,2.70
2023-01-07T01:55:21.946Z,3.07
2023-01-07T01:57:52.382Z,2.83
2023-01-07T02:00:20.309Z,3.17
2023-01-07T02:02:57.870Z,3.40
2023-01-07T02:05:27.117Z,3.30
2023-01-07T02:07:54.710Z,3.40
2023-01-07T02:10:24.384Z,3.53
2023-01-07T02:13:08.565Z,3.40
2023-01-07T02:15:48.307Z,3.40
2023-01-07T02:18:33.921Z,3.30
2023-01-07T02:21:17.975Z,3.13
2023-01-07T02:24:27.665Z,3.33
2023-01-07T02:27:11.036Z,3.33
2023-01-07T02:30:10.700Z,3.80
2023-01-07T02:32:55.910Z,4.40
2023-01-07T02:35:37.390Z,3.97
2023-01-07T02:38:14.187Z,4.50
2023-01-07T02:40:52.132Z,4.70
2023-01-07T02:43:28.251Z,4.80
2023-01-07T02:46:04.543Z,4.33
2023-01-07T02:48:36.213Z,4.50
2023-01-07T02:51:03.977Z,4.80
2023-01-07T02:53:33.022Z,5.20
2023-01-07T02:56:16.678Z,4.83
2023-01-07T02:58:57.644Z,4.97
2023-01-07T03:01:37.363Z,4.57
2023-01-07T03:04:24.126Z,4.90
2023-01-07T03:07:05.118Z,4.60
2023-01-07T03:09:42.897Z,3.97
2023-01-07T03:12:20.541Z,4.53
2023-01-07T03:14:52.209Z,4.60
2023-01-07T03:17:23.402Z,4.20
2023-01-07T03:19:55.805Z,5.13
2023-01-07T03:22:26.798Z,4.47
2023-01-07T03:24:57.473Z,4.40
2023-01-07T03:27:27.840Z,4.30
2023-01-07T03:29:56.194Z,3.73
2023-01-07T03:32:27.632Z,3.77
2023-01-07T03:34:57.324Z,3.40
2023-01-07T03:37:27.713Z,3.50
2023-01-07T03:39:55.846Z,3.63
2023-01-07T03:42:40.701Z,3.03
2023-01-07T03:45:15.497Z,3.13
2023-01-07T03:47:46.637Z,2.83
2023-01-07T03:50:16.556Z,2.83
2023-01-07T03:52:46.213Z,3.33
2023-01-07T03:55:13.978Z,3.90
2023-01-07T03:57:41.966Z,3.23
2023-01-07T04:00:12.698Z,3.40
2023-01-07T04:02:48.620Z,3.63
2023-01-07T04:05:25.216Z,3.50
2023-01-07T04:07:53.234Z,3.50
2023-01-07T04:10:21.576Z,2.70
2023-01-07T04:12:50.979Z,3.00
2023-01-07T04:15:18.598Z,2.77
2023-01-07T04:17:46.128Z,3.03
2023-01-07T04:20:13.782Z,3.03
2023-01-07T04:22:42.631Z,2.50
2023-01-07T04:25:10.324Z,2.70
2023-01-07T04:27:38.913Z,2.80
2023-01-07T04:30:07.591Z,2.33
2023-01-07T04:32:35.164Z,2.50
2023-01-07T04:35:03.011Z,3.00
2023-01-07T04:37:31.890Z,2.50
2023-01-07T04:40:01.267Z,2.47
2023-01-07T04:42:32.124Z,2.60
2023-01-07T04:44:59.822Z,2.20
2023-01-07T04:47:28.463Z,2.20
2023-01-07T04:49:56.701Z,2.10
2023-01-07T04:52:25.249Z,2.10
2023-01-07T04:54:54.279Z,2.13
2023-01-07T04:57:23.281Z,1.83
2023-01-07T04:59:52.632Z,1.77
2023-01-07T05:02:20.592Z,2.20
2023-01-07T05:04:48.718Z,2.20
2023-01-07T05:07:18.529Z,1.97
2023-01-07T05:09:46.494Z,1.83
2023-01-07T05:12:14.102Z,2.00
2023-01-07T05:14:44.488Z,2.10
2023-01-07T05:17:12.531Z,2.50
2023-01-07T05:19:40.883Z,2.00
2023-01-07T05:22:11.366Z,2.30
2023-01-07T05:24:41.200Z,2.40
2023-01-07T05:27:08.809Z,2.57
2023-01-07T05:29:37.970Z,2.87
2023-01-07T05:32:07.424Z,2.57
2023-01-07T05:34:36.060Z,2.50
2023-01-07T05:37:04.121Z,2.30
2023-01-07T05:39:33.329Z,2.33
2023-01-07T05:42:01.566Z,2.20
2023-01-07T05:44:29.814Z,2.33
2023-01-07T05:46:57.362Z,2.37
2023-01-07T05:49:26.217Z,2.50
2023-01-07T05:51:53.717Z,2.83
2023-01-07T05:54:21.245Z,3.30
2023-01-07T05:56:48.852Z,2.87
2023-01-07T05:59:16.572Z,3.30
2023-01-07T06:01:44.089Z,3.00
2023-01-07T06:04:12.310Z,2.80
2023-01-07T06:06:41.190Z,3.23
2023-01-07T06:09:08.754Z,3.10
2023-01-07T06:11:36.297Z,2.90
2023-01-07T06:14:03.900Z,3.23
2023-01-07T06:16:31.441Z,3.60
2023-01-07T06:18:59.013Z,3.00
2023-01-07T06:21:26.539Z,2.90
2023-01-07T06:23:56.670Z,3.03
2023-01-07T06:26:24.198Z,3.47
2023-01-07T06:28:52.393Z,3.27
2023-01-07T06:31:19.944Z,3.67
2023-01-07T06:33:47.498Z,3.40
2023-01-07T06:36:15.005Z,3.10
2023-01-07T06:38:42.569Z,2.83
2023-01-07T06:41:11.418Z,3.23
2023-01-07T06:43:39.038Z,3.00
2023-01-07T06:46:06.770Z,3.03
2023-01-07T06:48:34.334Z,2.60
2023-01-07T06:51:01.892Z,2.50
2023-01-07T06:53:29.721Z,2.30
2023-01-07T06:55:57.188Z,2.33
2023-01-07T06:58:26.056Z,2.07
2023-01-07T07:00:53.625Z,2.47
2023-01-07T07:03:21.247Z,2.70
2023-01-07T07:05:48.803Z,2.37
2023-01-07T07:08:16.449Z,2.83
2023-01-07T07:10:43.991Z,3.23
2023-01-07T07:13:11.998Z,2.60
2023-01-07T07:15:41.000Z,2.60
2023-01-07T07:18:08.835Z,2.30
2023-01-07T07:20:36.407Z,2.10
2023-01-07T07:23:04.028Z,2.30
2023-01-07T07:25:31.529Z,2.10
2023-01-07T07:27:59.099Z,1.80
2023-01-07T07:30:45.980Z,1.30
2023-01-07T07:33:18.988Z,1.50
2023-01-07T07:35:49.052Z,1.90
2023-01-07T07:38:17.797Z,1.80
2023-01-07T07:40:45.500Z,2.33
2023-01-07T07:43:13.342Z,2.70
2023-01-07T07:45:41.429Z,2.63
2023-01-07T07:48:10.327Z,2.37
2023-01-07T07:50:39.223Z,3.07
2023-01-07T07:53:10.347Z,2.47
2023-01-07T07:55:39.230Z,2.60
2023-01-07T07:58:07.587Z,2.67
2023-01-07T08:00:35.138Z,2.40
2023-01-07T08:03:03.164Z,2.40
2023-01-07T08:05:31.287Z,2.30
2023-01-07T08:08:01.567Z,3.40
2023-01-07T08:10:30.045Z,3.10
2023-01-07T08:12:57.679Z,3.20
2023-01-07T08:15:25.205Z,2.73
2023-01-07T08:17:59.136Z,3.00
2023-01-07T08:20:26.771Z,4.30
2023-01-07T08:22:54.415Z,4.20
2023-01-07T08:25:23.249Z,3.87
2023-01-07T08:27:50.895Z,4.03
2023-01-07T08:30:18.550Z,4.00
2023-01-07T08:32:46.060Z,4.20
2023-01-07T08:35:13.717Z,3.83
2023-01-07T08:37:41.215Z,4.80
2023-01-07T08:40:10.254Z,7.03
2023-01-07T08:42:39.164Z,6.77
2023-01-07T08:45:08.749Z,5.67
2023-01-07T08:47:36.439Z,5.53
2023-01-07T08:50:04.192Z,5.27
2023-01-07T08:52:31.696Z,6.07
2023-01-07T08:54:59.371Z,7.23
2023-01-07T08:57:26.891Z,7.33
2023-01-07T08:59:55.717Z,6.90
2023-01-07T09:02:23.296Z,6.87
2023-01-07T09:04:50.874Z,6.33
2023-01-07T09:07:18.406Z,5.37
2023-01-07T09:09:45.949Z,5.37
2023-01-07T09:12:13.458Z,5.17
2023-01-07T09:14:41.000Z,4.97
2023-01-07T09:17:10.561Z,6.10
2023-01-07T09:19:40.373Z,6.77
2023-01-07T09:22:08.061Z,6.00
2023-01-07T09:24:35.559Z,5.83
2023-01-07T09:27:03.215Z,5.40
2023-01-07T09:29:30.900Z,5.33
2023-01-07T09:31:58.509Z,5.90
2023-01-07T09:34:27.421Z,4.90
2023-01-07T09:36:54.945Z,5.90
2023-01-07T09:39:22.436Z,5.40
2023-01-07T09:41:57.052Z,5.63
2023-01-07T09:44:36.424Z,4.93
2023-01-07T09:47:05.535Z,4.43
2023-01-07T09:49:34.441Z,5.07
2023-01-07T09:52:13.579Z,4.23
2023-01-07T09:54:42.131Z,4.60
2023-01-07T09:57:12.158Z,4.27
2023-01-07T09:59:39.790Z,4.53
2023-01-07T10:02:20.394Z,4.73
2023-01-07T10:04:58.669Z,4.60
2023-01-07T10:07:34.630Z,4.43
2023-01-07T10:10:13.445Z,5.03
2023-01-07T10:12:46.774Z,4.90
2023-01-07T10:15:29.039Z,4.70
2023-01-07T10:18:14.233Z,4.70
2023-01-07T10:20:50.583Z,4.77
2023-01-07T10:23:24.013Z,3.97
2023-01-07T10:25:53.699Z,3.97
2023-01-07T10:28:25.616Z,3.57
2023-01-07T10:30:53.184Z,3.20
2023-01-07T10:33:25.173Z,3.00
2023-01-07T10:36:02.503Z,2.00
2023-01-07T10:38:35.228Z,2.00
2023-01-07T10:41:10.095Z,1.87
2023-01-07T10:43:59.769Z,1.80
2023-01-07T10:46:41.410Z,1.80
2023-01-07T10:49:30.522Z,1.50
2023-01-07T10:52:23.852Z,1.40
2023-01-07T10:55:05.814Z,1.50
2023-01-07T10:57:34.922Z,1.47
2023-01-07T11:00:05.397Z,1.23
2023-01-07T11:02:32.996Z,1.50
2023-01-07T11:05:00.890Z,1.20
2023-01-07T11:07:35.687Z,1.57
2023-01-07T11:10:06.289Z,1.70
2023-01-07T11:12:38.543Z,1.40
2023-01-07T11:15:14.911Z,1.30
2023-01-07T11:17:46.977Z,1.13
2023-01-07T11:20:14.653Z,0.97
2023-01-07T11:22:43.629Z,0.97
2023-01-07T11:25:29.117Z,1.13
2023-01-07T11:28:00.565Z,1.10
2023-01-07T11:30:31.889Z,0.90
2023-01-07T11:33:02.606Z,0.90
2023-01-07T11:35:30.683Z,0.90
2023-01-07T11:38:00.867Z,0.90
2023-01-07T11:40:30.260Z,0.80
2023-01-07T11:42:59.774Z,0.80
2023-01-07T11:45:29.459Z,0.90
2023-01-07T11:48:01.455Z,1.00
2023-01-07T11:50:34.822Z,1.17
2023-01-07T11:53:20.869Z,1.10
2023-01-07T11:55:57.445Z,1.20
2023-01-07T11:58:27.989Z,1.10
2023-01-07T12:01:15.762Z,1.00
2023-01-07T12:03:45.697Z,1.03
2023-01-07T12:06:20.280Z,1.17
2023-01-07T12:08:56.409Z,1.40
2023-01-07T12:11:32.320Z,1.03
2023-01-07T12:14:19.219Z,0.90
2023-01-07T12:16:49.595Z,0.70
2023-01-07T12:19:31.403Z,0.90
2023-01-07T12:22:11.942Z,0.83
2023-01-07T12:25:04.241Z,0.73
2023-01-07T12:27:42.443Z,0.60
2023-01-07T12:30:37.820Z,0.73
2023-01-07T12:33:17.144Z,0.87
2023-01-07T12:35:46.007Z,1.00
2023-01-07T12:38:19.760Z,0.80
2023-01-07T12:40:52.883Z,0.70
2023-01-07T12:43:26.858Z,0.90
2023-01-07T12:45:57.095Z,0.70
2023-01-07T12:48:29.976Z,0.70
2023-01-07T12:51:00.849Z,0.60
2023-01-07T12:53:35.573Z,0.70
2023-01-07T12:56:12.348Z,0.60
2023-01-07T12:58:46.725Z,0.63
2023-01-07T13:01:26.734Z,0.70
2023-01-07T13:04:07.668Z,0.70
2023-01-07T13:06:44.491Z,0.80
2023-01-07T13:09:25.516Z,0.73
2023-01-07T13:12:41.127Z,0.63
2023-01-07T13:15:12.349Z,0.80
2023-01-07T13:17:40.682Z,0.50
2023-01-07T13:20:13.108Z,0.63
2023-01-07T13:22:45.233Z,1.40
2023-01-07T13:25:28.449Z,1.30
2023-01-07T13:28:18.559Z,2.10
2023-01-07T13:30:57.963Z,3.30
2023-01-07T13:33:33.506Z,3.13
2023-01-07T13:36:15.829Z,3.80
2023-01-07T13:38:56.781Z,3.50
2023-01-07T13:41:39.790Z,2.03
2023-01-07T13:44:23.882Z,1.40
2023-01-07T13:46:52.095Z,1.20
2023-01-07T13:49:27.270Z,0.90
2023-01-07T13:51:55.466Z,0.63
2023-01-07T13:54:57.292Z,0.80
2023-01-07T13:57:44.848Z,0.70
2023-01-07T14:00:40.143Z,0.93
2023-01-07T14:03:31.638Z,0.80
2023-01-07T14:06:44.249Z,0.80
2023-01-07T14:09:29.296Z,0.60
2023-01-07T14:12:22.158Z,0.80
2023-01-07T14:14:59.549Z,0.70
2023-01-07T14:17:38.418Z,0.90
2023-01-07T14:20:16.699Z,0.70
2023-01-07T14:22:53.000Z,0.67
2023-01-07T14:25:36.449Z,0.63
2023-01-07T14:28:39.449Z,0.70
2023-01-07T14:31:19.953Z,0.87
2023-01-07T14:33:52.633Z,0.70
2023-01-07T14:36:20.294Z,0.90
2023-01-07T14:39:30.592Z,0.80
2023-01-07T14:42:48.956Z,0.70
2023-01-07T14:45:53.092Z,0.70
2023-01-07T14:48:35.509Z,0.70
2023-01-07T14:51:28.939Z,0.70
2023-01-07T14:54:21.174Z,0.60
2023-01-07T14:57:02.617Z,0.60
2023-01-07T14:59:47.395Z,0.70
2023-01-07T15:03:02.597Z,0.90
2023-01-07T15:05:51.256Z,1.03
2023-01-07T15:08:40.937Z,1.37
2023-01-07T15:11:33.667Z,1.20
2023-01-07T15:14:23.664Z,0.80
2023-01-07T15:16:53.403Z,1.00
2023-01-07T15:19:21.858Z,1.13
2023-01-07T15:22:00.386Z,1.00
2023-01-07T15:24:38.352Z,0.80
2023-01-07T15:27:11.554Z,1.03
2023-01-07T15:29:50.457Z,0.93
2023-01-07T15:32:30.700Z,0.80
2023-01-07T15:34:58.906Z,1.03
2023-01-07T15:37:26.664Z,1.00
2023-01-07T15:39:57.664Z,0.60
2023-01-07T15:42:28.948Z,0.80
2023-01-07T15:44:59.189Z,0.80
2023-01-07T15:47:39.304Z,0.90
2023-01-07T15:50:26.504Z,0.90
2023-01-07T15:52:56.703Z,0.90
2023-01-07T15:55:29.365Z,1.20
2023-01-07T15:58:05.072Z,0.80
2023-01-07T16:00:34.766Z,0.90
2023-01-07T16:03:03.005Z,0.90
2023-01-07T16:05:31.130Z,1.27
2023-01-07T16:08:00.205Z,1.40
2023-01-07T16:10:31.930Z,1.40
2023-01-07T16:13:01.183Z,0.87
2023-01-07T16:15:31.368Z,0.80
2023-01-07T16:18:00.615Z,0.60
2023-01-07T16:20:31.473Z,0.90
2023-01-07T16:23:21.513Z,0.70
2023-01-07T16:25:54.486Z,0.80
2023-01-07T16:28:24.909Z,0.80
2023-01-07T16:30:53.192Z,1.10
2023-01-07T16:33:23.419Z,1.00
2023-01-07T16:35:54.344Z,0.70
2023-01-07T16:38:22.643Z,0.70
2023-01-07T16:40:51.952Z,0.60
2023-01-07T16:43:32.323Z,0.70
2023-01-07T16:46:18.030Z,0.70
2023-01-07T16:48:46.024Z,0.90
2023-01-07T16:51:37.279Z,0.80
2023-01-07T16:54:29.584Z,0.90
2023-01-07T16:57:00.313Z,1.20
2023-01-07T16:59:31.448Z,1.33
2023-01-07T17:02:02.008Z,1.40
2023-01-07T17:04:31.121Z,1.20
2023-01-07T17:07:01.482Z,1.40
2023-01-07T17:09:35.026Z,1.50
2023-01-07T17:12:04.934Z,1.10
2023-01-07T17:14:49.080Z,1.23
2023-01-07T17:17:22.659Z,1.00
2023-01-07T17:19:54.905Z,0.93
2023-01-07T17:22:33.585Z,0.90
2023-01-07T17:25:04.427Z,1.30
2023-01-07T17:27:35.185Z,1.10
2023-01-07T17:30:04.126Z,1.57
2023-01-07T17:32:34.388Z,1.17
2023-01-07T17:35:03.806Z,1.20
2023-01-07T17:37:32.283Z,1.33
2023-01-07T17:39:59.828Z,1.50
2023-01-07T17:42:48.005Z,1.90
2023-01-07T17:45:19.431Z,1.70
2023-01-07T17:47:49.673Z,2.43
2023-01-07T17:50:19.545Z,3.20
2023-01-07T17:52:49.625Z,4.23
2023-01-07T17:55:21.132Z,7.47
2023-01-07T17:57:48.738Z,11.70
2023-01-07T18:00:20.623Z,11.53
2023-01-07T18:02:49.409Z,10.90
2023-01-07T18:05:19.237Z,8.40
2023-01-07T18:07:47.121Z,10.17
2023-01-07T18:10:16.331Z,7.60
2023-01-07T18:12:44.164Z,7.17
2023-01-07T18:15:22.893Z,8.10
2023-01-07T18:17:50.443Z,6.97
2023-01-07T18:20:19.229Z,6.27
2023-01-07T18:22:47.858Z,5.97
2023-01-07T18:25:17.766Z,4.93
2023-01-07T18:27:45.623Z,4.97
2023-01-07T18:30:18.901Z,5.10
2023-01-07T18:32:48.262Z,3.63
2023-01-07T18:35:18.979Z,4.80
2023-01-07T18:37:48.984Z,4.90
2023-01-07T18:40:16.519Z,5.10
2023-01-07T18:42:44.039Z,5.43
2023-01-07T18:45:12.282Z,5.20
2023-01-07T18:47:40.467Z,4.80
2023-01-07T18:50:10.077Z,5.20
2023-01-07T18:52:38.841Z,5.57
2023-01-07T18:55:07.596Z,5.33
2023-01-07T18:57:35.238Z,5.50
2023-01-07T19:00:02.903Z,5.27
2023-01-07T19:02:30.471Z,5.50
2023-01-07T19:04:58.023Z,5.10
2023-01-07T19:07:27.025Z,5.40
2023-01-07T19:09:54.591Z,5.00
2023-01-07T19:12:22.290Z,5.30
2023-01-07T19:14:49.876Z,5.70
2023-01-07T19:17:17.384Z,5.73
2023-01-07T19:19:48.659Z,5.83
2023-01-07T19:22:16.791Z,5.87
2023-01-07T19:24:45.655Z,5.80
2023-01-07T19:27:13.417Z,5.90
2023-01-07T19:29:41.056Z,5.67
2023-01-07T19:32:08.784Z,5.63
2023-01-07T19:34:36.419Z,5.30
2023-01-07T19:37:03.954Z,5.90
2023-01-07T19:39:31.570Z,5.47
2023-01-07T19:42:00.530Z,6.10
2023-01-07T19:44:28.047Z,6.17
2023-01-07T19:46:55.571Z,6.00
2023-01-07T19:49:23.062Z,4.97
2023-01-07T19:51:52.458Z,4.70
2023-01-07T19:54:20.119Z,5.30
2023-01-07T19:56:47.631Z,13.23
2023-01-07T19:59:16.603Z,7.30
2023-01-07T20:01:45.203Z,8.70
2023-01-07T20:04:12.887Z,9.67
2023-01-07T20:06:41.199Z,6.80
2023-01-07T20:09:10.997Z,6.07
2023-01-07T20:11:39.219Z,5.63
2023-01-07T20:14:07.542Z,5.40
2023-01-07T20:16:38.937Z,5.20
2023-01-07T20:19:07.117Z,4.83
2023-01-07T20:21:34.734Z,5.10
2023-01-07T20:24:02.355Z,4.97
2023-01-07T20:26:32.142Z,5.03
2023-01-07T20:29:01.169Z,4.57
2023-01-07T20:31:30.857Z,4.70
2023-01-07T20:34:00.091Z,4.80
2023-01-07T20:36:30.060Z,4.90
2023-01-07T20:38:57.881Z,4.40
2023-01-07T20:41:27.050Z,4.50
2023-01-07T20:43:57.082Z,4.17
2023-01-07T20:46:25.612Z,3.90
2023-01-07T20:48:53.518Z,3.97
2023-01-07T20:51:23.059Z,4.00
2023-01-07T20:53:50.570Z,4.40
2023-01-07T20:56:20.017Z,4.50
2023-01-07T20:58:48.361Z,4.00
2023-01-07T21:01:17.814Z,4.00
2023-01-07T21:03:45.769Z,3.80
2023-01-07T21:06:14.997Z,4.00
2023-01-07T21:08:44.544Z,3.50
2023-01-07T21:11:13.678Z,3.40
2023-01-07T21:13:41.889Z,3.37
2023-01-07T21:16:10.247Z,3.93
2023-01-07T21:18:38.078Z,3.90
2023-01-07T21:21:11.087Z,3.47
2023-01-07T21:23:38.762Z,3.50
2023-01-07T21:26:09.296Z,3.40
2023-01-07T21:28:36.967Z,3.57
2023-01-07T21:31:08.635Z,3.83
2023-01-07T21:33:37.114Z,3.77
2023-01-07T21:36:08.612Z,3.83
2023-01-07T21:38:36.117Z,3.60
2023-01-07T21:41:08.591Z,3.57
2023-01-07T21:43:36.430Z,3.37
2023-01-07T21:46:05.248Z,3.70
2023-01-07T21:48:33.304Z,3.70
2023-01-07T21:51:05.733Z,4.10
2023-01-07T21:53:34.649Z,4.23
2023-01-07T21:56:06.520Z,3.60
2023-01-07T21:58:35.825Z,3.60
2023-01-07T22:01:04.244Z,3.97
2023-01-07T22:03:31.842Z,4.30
2023-01-07T22:06:00.440Z,4.00
2023-01-07T22:08:28.513Z,3.93
2023-01-07T22:10:56.208Z,4.00
2023-01-07T22:13:24.185Z,3.83
2023-01-07T22:15:53.115Z,3.77
2023-01-07T22:18:20.656Z,4.10
2023-01-07T22:20:53.729Z,4.00
2023-01-07T22:23:21.261Z,3.90
2023-01-07T22:25:48.811Z,4.00
2023-01-07T22:28:18.789Z,4.03
2023-01-07T22:30:51.390Z,3.87
2023-01-07T22:33:20.277Z,4.00
2023-01-07T22:35:48.291Z,3.47
2023-01-07T22:38:17.684Z,3.63
2023-01-07T22:40:45.490Z,3.90
2023-01-07T22:43:15.698Z,3.77
2023-01-07T22:45:48.999Z,3.80
2023-01-07T22:48:23.805Z,3.70
2023-01-07T22:50:54.309Z,3.77
2023-01-07T22:53:22.915Z,3.67
2023-01-07T22:55:50.648Z,4.37
2023-01-07T22:58:19.105Z,4.13
2023-01-07T23:01:12.724Z,4.20
2023-01-07T23:03:41.487Z,4.13
2023-01-07T23:06:11.686Z,4.40
2023-01-07T23:08:40.222Z,4.30
2023-01-07T23:11:08.146Z,4.77
2023-01-07T23:13:36.023Z,4.57
2023-01-07T23:16:06.272Z,4.70
2023-01-07T23:18:34.986Z,4.37
2023-01-07T23:21:05.551Z,5.03
2023-01-07T23:23:34.397Z,4.57
2023-01-07T23:26:01.915Z,4.13
2023-01-07T23:28:29.471Z,4.83
2023-01-07T23:31:01.385Z,5.10
2023-01-07T23:33:29.014Z,5.20
2023-01-07T23:36:02.435Z,4.80
2023-01-07T23:38:29.992Z,4.43
2023-01-07T23:41:02.214Z,4.77
2023-01-07T23:43:29.823Z,4.13
2023-01-07T23:45:58.282Z,4.33
2023-01-07T23:48:26.637Z,4.47
2023-01-07T23:50:54.707Z,4.60
2023-01-07T23:53:23.376Z,4.63
2023-01-07T23:55:52.469Z,4.70
2023-01-07T23:58:22.002Z,4.80
